createdAt,value
2018-09-14T00:00:58.431Z,16.36
2018-09-14T00:02:02.630Z,16.36
2018-09-14T00:03:07.383Z,16.34
2018-09-14T00:04:11.548Z,16.34
2018-09-14T00:05:15.751Z,16.34
2018-09-14T00:06:19.942Z,16.34
2018-09-14T00:07:24.130Z,16.34
2018-09-14T00:08:28.307Z,16.34
2018-09-14T00:09:32.558Z,16.32
2018-09-14T00:10:36.719Z,16.32
2018-09-14T00:11:41.074Z,16.31
2018-09-14T00:12:45.209Z,16.31
2018-09-14T00:13:49.353Z,16.30
2018-09-14T00:14:53.684Z,16.30
2018-09-14T00:15:57.883Z,16.29
2018-09-14T00:17:02.074Z,16.28
2018-09-14T00:18:06.607Z,16.27
2018-09-14T00:19:10.767Z,16.25
2018-09-14T00:20:14.961Z,16.23
2018-09-14T00:21:19.124Z,16.21
2018-09-14T00:22:23.426Z,16.21
2018-09-14T00:23:27.583Z,16.19
2018-09-14T00:24:31.754Z,16.19
2018-09-14T00:25:35.945Z,16.18
2018-09-14T00:26:40.098Z,16.18
2018-09-14T00:27:44.305Z,16.16
2018-09-14T00:28:49.029Z,16.14
2018-09-14T00:29:53.173Z,16.12
2018-09-14T00:30:57.373Z,16.10
2018-09-14T00:32:01.529Z,16.09
2018-09-14T00:33:06.053Z,16.07
2018-09-14T00:34:10.251Z,16.08
2018-09-14T00:35:14.501Z,16.08
2018-09-14T00:36:18.705Z,16.06
2018-09-14T00:37:22.920Z,16.06
2018-09-14T00:38:27.094Z,16.06
2018-09-14T00:39:31.276Z,16.05
2018-09-14T00:40:35.483Z,16.04
2018-09-14T00:41:39.920Z,16.04
2018-09-14T00:42:44.105Z,16.04
2018-09-14T00:43:48.317Z,16.03
2018-09-14T00:44:52.466Z,16.02
2018-09-14T00:45:56.669Z,16.02
2018-09-14T00:47:00.886Z,16.01
2018-09-14T00:48:05.172Z,16.00
2018-09-14T00:49:09.369Z,16.00
2018-09-14T00:50:13.542Z,15.98
2018-09-14T00:51:17.968Z,15.97
2018-09-14T00:52:22.195Z,15.97
2018-09-14T00:53:26.397Z,15.95
2018-09-14T00:54:30.572Z,15.92
2018-09-14T00:55:34.734Z,15.91
2018-09-14T00:56:38.912Z,15.89
2018-09-14T00:57:43.035Z,15.88
2018-09-14T00:58:47.529Z,15.87
2018-09-14T00:59:52.064Z,15.86
2018-09-14T01:00:56.479Z,15.83
2018-09-14T01:02:00.680Z,15.84
2018-09-14T01:03:04.848Z,15.81
2018-09-14T01:04:09.167Z,15.82
2018-09-14T01:05:13.355Z,15.79
2018-09-14T01:06:17.508Z,15.78
2018-09-14T01:07:21.686Z,15.76
2018-09-14T01:08:25.884Z,15.74
2018-09-14T01:09:30.053Z,15.73
2018-09-14T01:10:34.397Z,15.71
2018-09-14T01:11:38.560Z,15.69
2018-09-14T01:12:42.809Z,15.70
2018-09-14T01:13:47.101Z,15.68
2018-09-14T01:14:51.241Z,15.69
2018-09-14T01:15:55.425Z,15.68
2018-09-14T01:16:59.626Z,15.69
2018-09-14T01:18:03.757Z,15.69
2018-09-14T01:19:07.906Z,15.67
2018-09-14T01:20:12.279Z,15.66
2018-09-14T01:21:16.586Z,15.64
2018-09-14T01:22:20.731Z,15.63
2018-09-14T01:23:24.939Z,15.62
2018-09-14T01:24:29.104Z,15.61
2018-09-14T01:25:33.269Z,15.61
2018-09-14T01:26:37.696Z,15.60
2018-09-14T01:27:41.871Z,15.58
2018-09-14T01:28:46.014Z,15.56
2018-09-14T01:29:50.206Z,15.57
2018-09-14T01:30:54.410Z,15.57
2018-09-14T01:31:58.619Z,15.55
2018-09-14T01:33:03.013Z,15.56
2018-09-14T01:34:07.320Z,15.57
2018-09-14T01:35:16.954Z,15.57
2018-09-14T01:36:21.229Z,15.55
2018-09-14T01:37:25.566Z,15.54
2018-09-14T01:38:29.716Z,15.53
2018-09-14T01:39:33.976Z,15.51
2018-09-14T01:40:38.167Z,15.49
2018-09-14T01:41:42.347Z,15.47
2018-09-14T01:42:46.856Z,15.44
2018-09-14T01:43:50.981Z,15.42
2018-09-14T01:44:55.267Z,15.40
2018-09-14T01:45:59.517Z,15.38
2018-09-14T01:47:03.703Z,15.36
2018-09-14T01:48:07.918Z,15.35
2018-09-14T01:49:12.746Z,15.34
2018-09-14T01:50:17.270Z,15.32
2018-09-14T01:51:21.412Z,15.30
2018-09-14T01:52:25.590Z,15.28
2018-09-14T01:53:29.782Z,15.26
2018-09-14T01:54:34.025Z,15.24
2018-09-14T01:55:38.154Z,15.24
2018-09-14T01:56:42.359Z,15.24
2018-09-14T01:57:46.541Z,15.23
2018-09-14T01:58:50.962Z,15.22
2018-09-14T01:59:55.155Z,15.22
2018-09-14T02:00:59.286Z,15.20
2018-09-14T02:02:03.520Z,15.20
2018-09-14T02:03:07.718Z,15.19
2018-09-14T02:04:11.925Z,15.19
2018-09-14T02:05:16.215Z,15.19
2018-09-14T02:06:20.574Z,15.18
2018-09-14T02:07:25.160Z,15.18
2018-09-14T02:08:29.498Z,15.15
2018-09-14T02:09:33.821Z,15.13
2018-09-14T02:10:38.122Z,15.11
2018-09-14T02:11:42.445Z,15.08
2018-09-14T02:12:46.726Z,15.07
2018-09-14T02:13:50.962Z,15.05
2018-09-14T02:14:55.194Z,15.04
2018-09-14T02:15:59.375Z,15.02
2018-09-14T02:17:03.578Z,15.02
2018-09-14T02:18:07.819Z,15.01
2018-09-14T02:19:12.072Z,15.01
2018-09-14T02:20:17.866Z,15.01
2018-09-14T02:21:22.018Z,15.00
2018-09-14T02:22:27.085Z,15.00
2018-09-14T02:23:31.388Z,14.99
2018-09-14T02:24:35.713Z,14.98
2018-09-14T02:25:39.975Z,14.97
2018-09-14T02:26:44.187Z,14.97
2018-09-14T02:27:48.387Z,14.97
2018-09-14T02:28:52.739Z,14.98
2018-09-14T02:29:57.133Z,14.98
2018-09-14T02:31:01.378Z,15.00
2018-09-14T02:32:05.926Z,15.00
2018-09-14T02:33:10.070Z,15.00
2018-09-14T02:34:14.262Z,14.98
2018-09-14T02:35:18.583Z,14.97
2018-09-14T02:36:22.985Z,14.97
2018-09-14T02:37:27.140Z,14.97
2018-09-14T02:38:31.337Z,14.96
2018-09-14T02:39:35.608Z,14.97
2018-09-14T02:40:39.971Z,14.95
2018-09-14T02:41:44.170Z,14.94
2018-09-14T02:42:48.434Z,14.94
2018-09-14T02:43:52.589Z,14.94
2018-09-14T02:44:56.940Z,14.92
2018-09-14T02:46:01.184Z,14.91
2018-09-14T02:47:05.631Z,14.91
2018-09-14T02:48:09.841Z,14.91
2018-09-14T02:49:14.173Z,14.91
2018-09-14T02:50:18.328Z,14.91
2018-09-14T02:51:22.563Z,14.91
2018-09-14T02:52:26.738Z,14.93
2018-09-14T02:53:30.926Z,14.94
2018-09-14T02:54:35.161Z,14.93
2018-09-14T02:55:39.355Z,14.94
2018-09-14T02:56:43.515Z,14.94
2018-09-14T02:57:47.705Z,14.94
2018-09-14T02:58:52.165Z,14.94
2018-09-14T02:59:56.328Z,14.94
2018-09-14T03:01:00.512Z,14.94
2018-09-14T03:02:04.841Z,14.93
2018-09-14T03:03:09.235Z,14.94
2018-09-14T03:04:13.456Z,14.92
2018-09-14T03:05:17.631Z,14.92
2018-09-14T03:06:21.968Z,14.90
2018-09-14T03:07:26.161Z,14.90
2018-09-14T03:08:30.561Z,14.89
2018-09-14T03:09:34.751Z,14.88
2018-09-14T03:10:39.030Z,14.89
2018-09-14T03:11:43.196Z,14.89
2018-09-14T03:12:47.342Z,14.88
2018-09-14T03:13:51.553Z,14.88
2018-09-14T03:14:55.733Z,14.88
2018-09-14T03:16:00.014Z,14.86
2018-09-14T03:17:04.369Z,14.86
2018-09-14T03:18:08.546Z,14.85
2018-09-14T03:19:12.756Z,14.84
2018-09-14T03:20:17.041Z,14.83
2018-09-14T03:21:21.181Z,14.83
2018-09-14T03:22:25.455Z,14.82
2018-09-14T03:23:29.611Z,14.82
2018-09-14T03:24:33.814Z,14.81
2018-09-14T03:25:37.997Z,14.81
2018-09-14T03:26:42.171Z,14.80
2018-09-14T03:27:46.375Z,14.79
2018-09-14T03:28:50.578Z,14.78
2018-09-14T03:29:54.991Z,14.77
2018-09-14T03:30:59.192Z,14.77
2018-09-14T03:32:03.367Z,14.76
2018-09-14T03:33:07.517Z,14.75
2018-09-14T03:34:11.735Z,14.76
2018-09-14T03:35:16.091Z,14.75
2018-09-14T03:36:20.286Z,14.75
2018-09-14T03:37:24.528Z,14.74
2018-09-14T03:38:28.731Z,14.74
2018-09-14T03:39:32.996Z,14.74
2018-09-14T03:40:37.258Z,14.74
2018-09-14T03:41:41.453Z,14.73
2018-09-14T03:42:45.695Z,14.72
2018-09-14T03:43:49.964Z,14.70
2018-09-14T03:44:54.272Z,14.70
2018-09-14T03:45:58.657Z,14.67
2018-09-14T03:47:02.838Z,14.64
2018-09-14T03:48:07.142Z,14.60
2018-09-14T03:49:11.337Z,14.58
2018-09-14T03:50:15.531Z,14.55
2018-09-14T03:51:19.735Z,14.52
2018-09-14T03:52:23.908Z,14.52
2018-09-14T03:53:28.320Z,14.49
2018-09-14T03:54:32.689Z,14.47
2018-09-14T03:55:36.826Z,14.45
2018-09-14T03:56:41.039Z,14.43
2018-09-14T03:57:45.422Z,14.41
2018-09-14T03:58:49.569Z,14.40
2018-09-14T03:59:54.028Z,14.39
2018-09-14T04:00:58.268Z,14.39
2018-09-14T04:02:02.757Z,14.38
2018-09-14T04:03:07.170Z,14.37
2018-09-14T04:04:11.374Z,14.37
2018-09-14T04:05:15.608Z,14.36
2018-09-14T04:06:19.785Z,14.37
2018-09-14T04:07:24.025Z,14.37
2018-09-14T04:08:28.421Z,14.37
2018-09-14T04:09:32.557Z,14.40
2018-09-14T04:10:36.714Z,14.41
2018-09-14T04:11:40.913Z,14.43
2018-09-14T04:12:45.151Z,14.44
2018-09-14T04:13:49.391Z,14.45
2018-09-14T04:14:53.547Z,14.45
2018-09-14T04:15:57.868Z,14.45
2018-09-14T04:17:02.066Z,14.44
2018-09-14T04:18:06.427Z,14.45
2018-09-14T04:19:10.678Z,14.43
2018-09-14T04:20:15.001Z,14.45
2018-09-14T04:21:19.292Z,14.44
2018-09-14T04:22:23.499Z,14.45
2018-09-14T04:23:27.675Z,14.44
2018-09-14T04:24:31.871Z,14.43
2018-09-14T04:25:36.048Z,14.41
2018-09-14T04:26:40.201Z,14.39
2018-09-14T04:27:44.543Z,14.37
2018-09-14T04:28:48.746Z,14.35
2018-09-14T04:29:53.137Z,14.36
2018-09-14T04:30:57.315Z,14.35
2018-09-14T04:32:01.488Z,14.36
2018-09-14T04:33:05.708Z,14.36
2018-09-14T04:34:09.921Z,14.37
2018-09-14T04:35:14.265Z,14.37
2018-09-14T04:36:19.192Z,14.38
2018-09-14T04:37:23.553Z,14.38
2018-09-14T04:38:27.726Z,14.39
2018-09-14T04:39:31.905Z,14.37
2018-09-14T04:40:36.086Z,14.36
2018-09-14T04:41:40.398Z,14.36
2018-09-14T04:42:44.557Z,14.37
2018-09-14T04:43:48.961Z,14.36
2018-09-14T04:44:53.161Z,14.38
2018-09-14T04:45:57.354Z,14.38
2018-09-14T04:47:01.545Z,14.39
2018-09-14T04:48:05.771Z,14.39
2018-09-14T04:49:09.925Z,14.38
2018-09-14T04:50:14.130Z,14.38
2018-09-14T04:51:18.306Z,14.40
2018-09-14T04:52:22.466Z,14.39
2018-09-14T04:53:26.909Z,14.39
2018-09-14T04:54:31.205Z,14.37
2018-09-14T04:55:35.425Z,14.35
2018-09-14T04:56:39.590Z,14.33
2018-09-14T04:57:43.754Z,14.31
2018-09-14T04:58:47.924Z,14.29
2018-09-14T04:59:52.098Z,14.26
2018-09-14T05:00:56.519Z,14.24
2018-09-14T05:02:00.661Z,14.23
2018-09-14T05:03:04.996Z,14.22
2018-09-14T05:04:09.190Z,14.21
2018-09-14T05:05:13.442Z,14.21
2018-09-14T05:06:17.637Z,14.21
2018-09-14T05:07:21.797Z,14.21
2018-09-14T05:08:26.038Z,14.19
2018-09-14T05:09:30.263Z,14.20
2018-09-14T05:10:34.628Z,14.20
2018-09-14T05:11:38.878Z,14.20
2018-09-14T05:12:43.060Z,14.20
2018-09-14T05:13:47.469Z,14.22
2018-09-14T05:14:51.903Z,14.23
2018-09-14T05:15:56.276Z,14.23
2018-09-14T05:17:00.490Z,14.23
2018-09-14T05:18:05.658Z,14.24
2018-09-14T05:19:10.055Z,14.24
2018-09-14T05:20:14.268Z,14.25
2018-09-14T05:21:18.669Z,14.25
2018-09-14T05:22:23.022Z,14.26
2018-09-14T05:23:27.181Z,14.28
2018-09-14T05:24:31.443Z,14.29
2018-09-14T05:25:35.546Z,14.31
2018-09-14T05:26:39.734Z,14.32
2018-09-14T05:27:43.924Z,14.34
2018-09-14T05:28:48.096Z,14.36
2018-09-14T05:29:52.251Z,14.36
2018-09-14T05:30:56.627Z,14.38
2018-09-14T05:32:00.777Z,14.39
2018-09-14T05:33:05.016Z,14.41
2018-09-14T05:34:09.587Z,14.41
2018-09-14T05:35:13.857Z,14.42
2018-09-14T05:36:18.038Z,14.42
2018-09-14T05:37:22.259Z,14.43
2018-09-14T05:38:26.683Z,14.44
2018-09-14T05:39:30.873Z,14.45
2018-09-14T05:40:35.386Z,14.46
2018-09-14T05:41:39.535Z,14.48
2018-09-14T05:42:43.795Z,14.49
2018-09-14T05:43:48.005Z,14.50
2018-09-14T05:44:52.189Z,14.50
2018-09-14T05:45:56.398Z,14.51
2018-09-14T05:47:00.820Z,14.51
2018-09-14T05:48:05.005Z,14.53
2018-09-14T05:49:09.234Z,14.54
2018-09-14T05:50:13.745Z,14.55
2018-09-14T05:51:18.165Z,14.55
2018-09-14T05:52:22.512Z,14.54
2018-09-14T05:53:26.690Z,14.55
2018-09-14T05:54:31.085Z,14.53
2018-09-14T05:55:35.233Z,14.53
2018-09-14T05:56:39.469Z,14.51
2018-09-14T05:57:43.652Z,14.51
2018-09-14T05:58:47.825Z,14.49
2018-09-14T05:59:52.022Z,14.51
2018-09-14T06:00:56.550Z,14.49
2018-09-14T06:02:00.717Z,14.48
2018-09-14T06:03:05.097Z,14.49
2018-09-14T06:04:09.280Z,14.49
2018-09-14T06:05:13.525Z,14.48
2018-09-14T06:06:17.714Z,14.49
2018-09-14T06:07:21.867Z,14.51
2018-09-14T06:08:26.152Z,14.53
2018-09-14T06:09:30.467Z,14.56
2018-09-14T06:10:34.669Z,14.60
2018-09-14T06:11:38.990Z,14.65
2018-09-14T06:12:43.194Z,14.67
2018-09-14T06:13:47.413Z,14.69
2018-09-14T06:14:51.793Z,14.73
2018-09-14T06:15:55.992Z,14.76
2018-09-14T06:17:00.255Z,14.77
2018-09-14T06:18:04.450Z,14.80
2018-09-14T06:19:08.586Z,14.81
2018-09-14T06:20:12.793Z,14.84
2018-09-14T06:21:16.986Z,14.84
2018-09-14T06:22:21.174Z,14.83
2018-09-14T06:23:25.338Z,14.86
2018-09-14T06:24:29.539Z,14.86
2018-09-14T06:25:34.050Z,14.88
2018-09-14T06:26:38.256Z,14.88
2018-09-14T06:27:42.390Z,14.89
2018-09-14T06:28:46.561Z,14.92
2018-09-14T06:29:50.878Z,14.95
2018-09-14T06:30:55.138Z,14.99
2018-09-14T06:31:59.317Z,15.02
2018-09-14T06:33:03.588Z,15.05
2018-09-14T06:34:07.801Z,15.07
2018-09-14T06:35:12.205Z,15.09
2018-09-14T06:36:16.407Z,15.12
2018-09-14T06:37:20.656Z,15.13
2018-09-14T06:38:24.893Z,15.16
2018-09-14T06:39:29.107Z,15.15
2018-09-14T06:40:33.279Z,15.16
2018-09-14T06:41:37.587Z,15.17
2018-09-14T06:42:41.944Z,15.19
2018-09-14T06:43:46.094Z,15.21
2018-09-14T06:44:50.485Z,15.24
2018-09-14T06:45:54.674Z,15.25
2018-09-14T06:46:58.847Z,15.25
2018-09-14T06:48:03.018Z,15.26
2018-09-14T06:49:07.190Z,15.24
2018-09-14T06:50:11.426Z,15.22
2018-09-14T06:51:15.729Z,15.21
2018-09-14T06:52:19.998Z,15.18
2018-09-14T06:53:24.193Z,15.17
2018-09-14T06:54:28.350Z,15.16
2018-09-14T06:55:32.544Z,15.15
2018-09-14T06:56:36.756Z,15.15
2018-09-14T06:57:41.115Z,15.15
2018-09-14T06:58:45.438Z,15.14
2018-09-14T06:59:49.733Z,15.15
2018-09-14T07:15:16.258Z,14.76
2018-09-14T07:16:20.447Z,14.72
2018-09-14T07:17:24.668Z,14.73
2018-09-14T07:18:28.831Z,14.75
2018-09-14T07:19:33.032Z,14.77
2018-09-14T07:20:37.272Z,14.81
2018-09-14T07:21:41.458Z,14.86
2018-09-14T07:22:45.600Z,14.91
2018-09-14T07:23:49.822Z,14.95
2018-09-14T07:24:54.083Z,14.99
2018-09-14T07:25:58.260Z,15.05
2018-09-14T07:27:02.465Z,15.09
2018-09-14T07:28:06.662Z,15.11
2018-09-14T07:29:10.938Z,15.15
2018-09-14T07:30:15.384Z,15.18
2018-09-14T07:31:19.868Z,15.20
2018-09-14T07:32:24.091Z,15.23
2018-09-14T07:33:29.027Z,15.26
2018-09-14T07:34:33.246Z,15.27
2018-09-14T07:35:37.587Z,15.28
2018-09-14T07:36:41.811Z,15.31
2018-09-14T07:37:45.981Z,15.33
2018-09-14T07:38:50.308Z,15.34
2018-09-14T07:39:54.503Z,15.37
2018-09-14T07:40:58.821Z,15.40
2018-09-14T07:42:03.143Z,15.41
2018-09-14T07:43:07.417Z,15.44
2018-09-14T07:44:11.578Z,15.47
2018-09-14T07:45:15.781Z,15.49
2018-09-14T07:46:20.099Z,15.51
2018-09-14T07:47:24.454Z,15.52
2018-09-14T07:48:28.624Z,15.53
2018-09-14T07:49:32.774Z,15.54
2018-09-14T07:50:36.926Z,15.56
2018-09-14T07:51:41.095Z,15.57
2018-09-14T07:52:45.336Z,15.58
2018-09-14T07:53:49.523Z,15.60
2018-09-14T07:54:53.743Z,15.62
2018-09-14T07:55:58.042Z,15.63
2018-09-14T07:57:02.422Z,15.64
2018-09-14T07:58:06.615Z,15.68
2018-09-14T07:59:10.806Z,15.70
2018-09-14T08:00:15.058Z,15.72
2018-09-14T08:01:19.332Z,15.73
2018-09-14T08:02:23.478Z,15.75
2018-09-14T08:03:27.687Z,15.76
2018-09-14T08:04:31.890Z,15.79
2018-09-14T08:05:36.072Z,15.80
2018-09-14T08:06:40.241Z,15.82
2018-09-14T08:07:44.546Z,15.84
2018-09-14T08:08:48.826Z,15.86
2018-09-14T08:09:53.007Z,15.88
2018-09-14T08:10:57.203Z,15.89
2018-09-14T08:12:01.417Z,15.91
2018-09-14T08:13:05.818Z,15.92
2018-09-14T08:14:10.694Z,15.93
2018-09-14T08:15:14.952Z,15.97
2018-09-14T08:16:19.692Z,15.99
2018-09-14T08:17:23.945Z,15.99
2018-09-14T08:18:28.067Z,16.02
2018-09-14T08:19:32.234Z,16.03
2018-09-14T08:20:36.422Z,16.04
2018-09-14T08:21:40.649Z,16.05
2018-09-14T08:22:44.714Z,16.07
2018-09-14T08:23:48.910Z,16.08
2018-09-14T08:24:53.142Z,16.10
2018-09-14T08:25:57.586Z,16.11
2018-09-14T08:27:01.717Z,16.13
2018-09-14T08:28:05.846Z,16.14
2018-09-14T08:29:09.975Z,16.16
2018-09-14T08:30:14.160Z,16.19
2018-09-14T08:31:18.318Z,16.21
2018-09-14T08:32:22.467Z,16.22
2018-09-14T08:33:26.716Z,16.25
2018-09-14T08:34:30.884Z,16.26
2018-09-14T08:35:35.118Z,16.28
2018-09-14T08:36:39.331Z,16.31
2018-09-14T08:37:43.627Z,16.32
2018-09-14T08:38:47.846Z,16.36
2018-09-14T08:39:51.975Z,16.37
2018-09-14T08:40:56.175Z,16.40
2018-09-14T08:42:00.356Z,16.40
2018-09-14T08:43:04.533Z,16.44
2018-09-14T08:44:08.972Z,16.46
2018-09-14T08:45:13.115Z,16.48
2018-09-14T08:46:17.281Z,16.48
2018-09-14T08:47:21.469Z,16.52
2018-09-14T08:48:25.794Z,16.55
2018-09-14T08:49:29.938Z,16.57
2018-09-14T08:50:34.122Z,16.61
2018-09-14T08:51:38.474Z,16.64
2018-09-14T08:52:42.631Z,16.68
2018-09-14T08:53:46.950Z,16.70
2018-09-14T08:54:51.128Z,16.72
2018-09-14T08:55:55.248Z,16.74
2018-09-14T08:56:59.641Z,16.76
2018-09-14T08:58:04.010Z,16.78
2018-09-14T08:59:08.203Z,16.79
2018-09-14T09:00:12.461Z,16.80
2018-09-14T09:01:16.642Z,16.82
2018-09-14T09:02:20.836Z,16.85
2018-09-14T09:03:24.990Z,16.87
2018-09-14T09:04:29.133Z,16.89
2018-09-14T09:05:33.488Z,16.92
2018-09-14T09:06:37.693Z,16.94
2018-09-14T09:07:41.959Z,16.96
2018-09-14T09:08:46.509Z,16.99
2018-09-14T09:09:50.641Z,17.01
2018-09-14T09:10:54.791Z,17.03
2018-09-14T09:11:58.974Z,17.05
2018-09-14T09:13:03.150Z,17.08
2018-09-14T09:14:07.883Z,17.09
2018-09-14T09:15:12.055Z,17.11
2018-09-14T09:16:16.871Z,17.13
2018-09-14T09:17:21.310Z,17.16
2018-09-14T09:18:25.587Z,17.18
2018-09-14T09:19:29.739Z,17.19
2018-09-14T09:20:33.900Z,17.22
2018-09-14T09:21:38.086Z,17.24
2018-09-14T09:22:42.404Z,17.25
2018-09-14T09:23:46.643Z,17.28
2018-09-14T09:24:50.794Z,17.30
2018-09-14T09:25:54.959Z,17.31
2018-09-14T09:26:59.122Z,17.33
2018-09-14T09:28:03.274Z,17.35
2018-09-14T09:29:07.635Z,17.36
2018-09-14T09:30:11.752Z,17.39
2018-09-14T09:31:15.923Z,17.42
2018-09-14T09:32:20.092Z,17.43
2018-09-14T09:33:24.257Z,17.47
2018-09-14T09:34:28.475Z,17.50
2018-09-14T09:35:32.660Z,17.53
2018-09-14T09:36:36.799Z,17.54
2018-09-14T09:37:40.964Z,17.57
2018-09-14T09:38:45.145Z,17.59
2018-09-14T09:39:49.328Z,17.61
2018-09-14T09:40:53.741Z,17.64
2018-09-14T09:41:57.934Z,17.66
2018-09-14T09:43:02.107Z,17.69
2018-09-14T09:44:06.705Z,17.71
2018-09-14T09:45:10.886Z,17.74
2018-09-14T09:46:15.122Z,17.77
2018-09-14T09:47:19.266Z,17.78
2018-09-14T09:48:23.537Z,17.80
2018-09-14T09:49:27.682Z,17.82
2018-09-14T09:50:31.942Z,17.83
2018-09-14T09:51:36.146Z,17.86
2018-09-14T09:52:40.275Z,17.89
2018-09-14T09:53:44.430Z,17.90
2018-09-14T09:54:48.667Z,17.91
2018-09-14T09:55:52.894Z,17.92
2018-09-14T09:56:57.055Z,17.95
2018-09-14T09:58:01.194Z,17.99
2018-09-14T09:59:05.354Z,18.01
2018-09-14T10:00:14.726Z,18.04
2018-09-14T10:01:24.236Z,18.05
2018-09-14T10:02:33.457Z,18.07
2018-09-14T10:03:44.180Z,18.08
2018-09-14T10:04:53.516Z,18.10
2018-09-14T10:06:03.034Z,18.12
2018-09-14T10:07:07.327Z,18.13
2018-09-14T10:08:11.494Z,18.15
2018-09-14T10:09:15.663Z,18.16
2018-09-14T10:10:19.807Z,18.18
2018-09-14T10:11:24.383Z,18.21
2018-09-14T10:12:28.609Z,18.23
2018-09-14T10:13:33.025Z,18.25
2018-09-14T10:14:37.165Z,18.28
2018-09-14T10:15:41.312Z,18.29
2018-09-14T10:16:45.501Z,18.30
2018-09-14T10:17:49.999Z,18.32
2018-09-14T10:18:54.203Z,18.33
2018-09-14T10:19:58.360Z,18.35
2018-09-14T10:21:02.749Z,18.37
2018-09-14T10:22:06.903Z,18.39
2018-09-14T10:23:11.072Z,18.40
2018-09-14T10:24:15.251Z,18.41
2018-09-14T10:25:19.435Z,18.43
2018-09-14T10:26:23.787Z,18.45
2018-09-14T10:27:27.973Z,18.47
2018-09-14T10:28:32.366Z,18.48
2018-09-14T10:29:36.718Z,18.50
2018-09-14T10:30:40.864Z,18.52
2018-09-14T10:31:45.125Z,18.55
2018-09-14T10:32:49.512Z,18.57
2018-09-14T10:33:53.788Z,18.60
2018-09-14T10:34:57.941Z,18.61
2018-09-14T10:36:02.148Z,18.64
2018-09-14T10:37:06.475Z,18.67
2018-09-14T10:38:10.761Z,18.71
2018-09-14T10:39:14.905Z,18.75
2018-09-14T10:40:19.193Z,18.77
2018-09-14T10:41:23.384Z,18.80
2018-09-14T10:42:28.400Z,18.83
2018-09-14T10:43:32.551Z,18.85
2018-09-14T10:44:36.812Z,18.87
2018-09-14T10:45:40.974Z,18.88
2018-09-14T10:46:45.222Z,18.91
2018-09-14T10:47:49.529Z,18.95
2018-09-14T10:48:53.758Z,18.98
2018-09-14T10:49:57.886Z,19.00
2018-09-14T10:51:02.105Z,19.03
2018-09-14T10:52:06.553Z,19.05
2018-09-14T10:53:10.758Z,19.08
2018-09-14T10:54:15.035Z,19.09
2018-09-14T10:55:19.263Z,19.10
2018-09-14T10:56:23.386Z,19.12
2018-09-14T10:57:27.578Z,19.15
2018-09-14T10:58:37.820Z,19.16
2018-09-14T10:59:42.111Z,19.20
2018-09-14T11:00:46.272Z,19.27
2018-09-14T11:01:50.650Z,19.31
2018-09-14T11:02:54.889Z,19.34
2018-09-14T11:03:59.056Z,19.36
2018-09-14T11:05:03.223Z,19.38
2018-09-14T11:06:07.406Z,19.41
2018-09-14T11:07:11.572Z,19.45
2018-09-14T11:08:15.706Z,19.50
2018-09-14T11:09:19.980Z,19.55
2018-09-14T11:10:24.249Z,19.60
2018-09-14T11:11:28.423Z,19.64
2018-09-14T11:12:32.711Z,19.66
2018-09-14T11:13:37.107Z,19.69
2018-09-14T11:14:41.238Z,19.71
2018-09-14T11:15:45.388Z,19.76
2018-09-14T11:16:49.789Z,19.81
2018-09-14T11:17:54.292Z,19.86
2018-09-14T11:18:58.581Z,19.90
2018-09-14T11:20:02.923Z,19.94
2018-09-14T11:21:07.199Z,19.97
2018-09-14T11:22:11.414Z,20.01
2018-09-14T11:23:15.568Z,20.04
2018-09-14T11:24:19.733Z,20.06
2018-09-14T11:25:24.242Z,20.09
2018-09-14T11:26:28.242Z,20.11
2018-09-14T11:27:32.418Z,20.13
2018-09-14T11:28:36.582Z,20.13
2018-09-14T11:29:40.897Z,20.14
2018-09-14T11:30:45.060Z,20.15
2018-09-14T11:31:49.283Z,20.17
2018-09-14T11:32:53.467Z,20.16
2018-09-14T11:33:58.357Z,20.17
2018-09-14T11:35:02.583Z,20.18
2018-09-14T11:36:07.164Z,20.20
2018-09-14T11:37:11.454Z,20.22
2018-09-14T11:38:15.641Z,20.26
2018-09-14T11:39:19.780Z,20.30
2018-09-14T11:40:24.172Z,20.34
2018-09-14T11:41:28.305Z,20.39
2018-09-14T11:42:32.694Z,20.42
2018-09-14T11:43:36.855Z,20.46
2018-09-14T11:44:41.002Z,20.49
2018-09-14T11:45:45.127Z,20.52
2018-09-14T11:46:49.310Z,20.53
2018-09-14T11:47:53.461Z,20.52
2018-09-14T11:48:57.655Z,20.50
2018-09-14T11:50:01.819Z,20.48
2018-09-14T11:51:05.994Z,20.46
2018-09-14T11:52:10.244Z,20.44
2018-09-14T11:53:14.419Z,20.40
2018-09-14T11:54:18.758Z,20.37
2018-09-14T11:55:22.778Z,20.34
2018-09-14T11:56:26.974Z,20.32
2018-09-14T11:57:31.157Z,20.28
2018-09-14T11:58:35.362Z,20.25
2018-09-14T11:59:39.568Z,20.23
2018-09-14T12:00:43.842Z,20.22
2018-09-14T12:01:48.027Z,20.19
2018-09-14T12:02:52.185Z,20.18
2018-09-14T12:03:56.326Z,20.18
2018-09-14T12:05:00.526Z,20.19
2018-09-14T12:06:04.711Z,20.20
2018-09-14T12:07:08.887Z,20.25
2018-09-14T12:08:13.018Z,20.31
2018-09-14T12:09:17.863Z,20.36
2018-09-14T12:10:22.029Z,20.42
2018-09-14T12:11:26.195Z,20.46
2018-09-14T12:12:30.563Z,20.49
2018-09-14T12:13:34.826Z,20.50
2018-09-14T12:14:38.924Z,20.52
2018-09-14T12:15:43.162Z,20.55
2018-09-14T12:16:47.290Z,20.56
2018-09-14T12:17:51.467Z,20.59
2018-09-14T12:18:55.915Z,20.62
2018-09-14T12:20:00.403Z,20.62
2018-09-14T12:21:04.606Z,20.64
2018-09-14T12:22:08.865Z,20.63
2018-09-14T12:23:13.187Z,20.63
2018-09-14T12:24:17.413Z,20.61
2018-09-14T12:25:21.724Z,20.57
2018-09-14T12:26:25.989Z,20.53
2018-09-14T12:27:30.574Z,20.47
2018-09-14T12:28:34.849Z,20.45
2018-09-14T12:29:39.016Z,20.45
2018-09-14T12:30:43.258Z,20.44
2018-09-14T12:31:47.468Z,20.45
2018-09-14T12:32:51.863Z,20.47
2018-09-14T12:33:56.027Z,20.49
2018-09-14T12:35:00.283Z,20.52
2018-09-14T12:36:04.795Z,20.56
2018-09-14T12:37:08.975Z,20.60
2018-09-14T12:38:13.206Z,20.64
2018-09-14T12:39:17.561Z,20.69
2018-09-14T12:40:21.732Z,20.73
2018-09-14T12:41:25.916Z,20.75
2018-09-14T12:42:30.233Z,20.76
2018-09-14T12:43:34.401Z,20.78
2018-09-14T12:44:38.616Z,20.81
2018-09-14T12:45:42.774Z,20.83
2018-09-14T12:46:46.948Z,20.85
2018-09-14T12:47:51.119Z,20.88
2018-09-14T12:48:55.312Z,20.89
2018-09-14T12:49:59.466Z,20.94
2018-09-14T12:51:03.638Z,20.95
2018-09-14T12:52:07.818Z,20.99
2018-09-14T12:53:12.081Z,21.02
2018-09-14T12:54:16.238Z,21.05
2018-09-14T12:55:20.454Z,21.06
2018-09-14T12:56:24.686Z,21.09
2018-09-14T12:57:28.795Z,21.10
2018-09-14T12:58:33.105Z,21.11
2018-09-14T12:59:37.258Z,21.15
2018-09-14T13:00:41.437Z,21.21
2018-09-14T13:01:45.866Z,21.26
2018-09-14T13:02:50.046Z,21.32
2018-09-14T13:03:54.249Z,21.39
2018-09-14T13:04:58.641Z,21.46
2018-09-14T13:06:02.793Z,21.50
2018-09-14T13:07:07.075Z,21.54
2018-09-14T13:08:11.439Z,21.55
2018-09-14T13:09:15.618Z,21.54
2018-09-14T13:10:20.004Z,21.50
2018-09-14T13:11:24.227Z,21.47
2018-09-14T13:12:28.489Z,21.44
2018-09-14T13:13:32.692Z,21.42
2018-09-14T13:14:36.895Z,21.39
2018-09-14T13:15:41.035Z,21.39
2018-09-14T13:16:45.204Z,21.40
2018-09-14T13:17:49.531Z,21.42
2018-09-14T13:18:53.659Z,21.46
2018-09-14T13:19:58.026Z,21.50
2018-09-14T13:21:02.350Z,21.54
2018-09-14T13:22:06.816Z,21.57
2018-09-14T13:23:11.126Z,21.57
2018-09-14T13:24:15.376Z,21.60
2018-09-14T13:25:19.469Z,21.58
2018-09-14T13:26:23.630Z,21.58
2018-09-14T13:27:27.871Z,21.56
2018-09-14T13:28:31.990Z,21.54
2018-09-14T13:29:36.488Z,21.50
2018-09-14T13:30:40.687Z,21.49
2018-09-14T13:31:44.899Z,21.47
2018-09-14T13:32:51.771Z,21.44
2018-09-14T13:33:55.992Z,21.42
2018-09-14T13:35:00.278Z,21.40
2018-09-14T13:36:04.476Z,21.38
2018-09-14T13:37:08.892Z,21.35
2018-09-14T13:38:13.011Z,21.33
2018-09-14T13:39:17.155Z,21.29
2018-09-14T13:40:22.203Z,21.28
2018-09-14T13:41:26.633Z,21.26
2018-09-14T13:42:30.864Z,21.23
2018-09-14T13:43:35.020Z,21.19
2018-09-14T13:44:39.154Z,21.18
2018-09-14T13:45:43.365Z,21.15
2018-09-14T13:46:47.761Z,21.14
2018-09-14T13:47:51.931Z,21.13
2018-09-14T13:48:56.275Z,21.12
2018-09-14T13:50:00.423Z,21.12
2018-09-14T13:51:04.752Z,21.12
2018-09-14T13:52:08.943Z,21.13
2018-09-14T13:53:13.095Z,21.12
2018-09-14T13:54:17.247Z,21.12
2018-09-14T13:55:22.541Z,21.12
2018-09-14T13:56:26.699Z,21.11
2018-09-14T13:57:30.958Z,21.13
2018-09-14T13:58:35.158Z,21.14
2018-09-14T13:59:39.371Z,21.15
2018-09-14T14:00:43.527Z,21.17
2018-09-14T14:01:47.870Z,21.16
2018-09-14T14:02:52.065Z,21.16